createdAt,value
2022-07-29T00:01:46.806Z,101588.81
2022-07-29T00:04:16.434Z,101584.22
2022-07-29T00:06:46.142Z,101579.44
2022-07-29T00:09:15.644Z,101580.38
2022-07-29T00:11:45.043Z,101582.63
2022-07-29T00:14:14.843Z,101574.00
2022-07-29T00:16:46.871Z,101575.28
2022-07-29T00:19:16.327Z,101576.09
2022-07-29T00:21:45.818Z,101573.72
2022-07-29T00:24:15.731Z,101568.44
2022-07-29T00:26:45.607Z,101575.63
2022-07-29T00:29:33.563Z,101560.03
2022-07-29T00:32:03.720Z,101564.00
2022-07-29T00:34:46.157Z,101553.53
2022-07-29T00:37:15.566Z,101557.50
2022-07-29T00:39:45.635Z,101553.66
2022-07-29T00:42:15.012Z,101554.31
2022-07-29T00:44:46.311Z,101558.13
2022-07-29T00:47:15.878Z,101559.09
2022-07-29T00:49:46.151Z,101558.13
2022-07-29T00:52:16.974Z,101556.56
2022-07-29T00:54:46.878Z,101567.97
2022-07-29T00:57:16.516Z,101566.22
2022-07-29T00:59:46.042Z,101568.59
2022-07-29T01:02:15.544Z,101583.22
2022-07-29T01:04:45.064Z,101588.31
2022-07-29T01:07:17.711Z,101594.03
2022-07-29T01:09:48.461Z,101601.84
2022-07-29T01:12:21.971Z,101602.28
2022-07-29T01:14:52.947Z,101607.88
2022-07-29T01:17:30.820Z,101592.59
2022-07-29T01:20:20.343Z,101581.94
2022-07-29T01:23:12.192Z,101579.88
2022-07-29T01:25:59.554Z,101585.66
2022-07-29T01:28:47.032Z,101580.28
2022-07-29T01:31:25.391Z,101579.75
2022-07-29T01:34:02.445Z,101601.09
2022-07-29T01:36:41.612Z,101606.84
2022-07-29T01:39:36.224Z,101606.63
2022-07-29T01:42:16.385Z,101611.13
2022-07-29T01:44:54.288Z,101639.22
2022-07-29T01:47:29.280Z,101636.38
2022-07-29T01:50:02.002Z,101648.69
2022-07-29T01:52:50.715Z,101650.28
2022-07-29T01:55:23.620Z,101634.75
2022-07-29T01:57:53.431Z,101639.44
2022-07-29T02:00:24.051Z,101646.16
2022-07-29T02:02:57.740Z,101632.84
2022-07-29T02:05:30.106Z,101614.69
2022-07-29T02:08:02.196Z,101607.78
2022-07-29T02:10:35.019Z,101619.06
2022-07-29T02:13:06.713Z,101624.88
2022-07-29T02:15:38.156Z,101613.13
2022-07-29T02:18:15.512Z,101598.66
2022-07-29T02:20:49.702Z,101586.34
2022-07-29T02:23:25.015Z,101579.53
2022-07-29T02:26:00.635Z,101565.31
2022-07-29T02:28:32.328Z,101546.63
2022-07-29T02:31:04.484Z,101534.53
2022-07-29T02:33:35.267Z,101524.31
2022-07-29T02:36:05.630Z,101519.66
2022-07-29T02:38:48.219Z,101517.72
2022-07-29T02:41:41.754Z,101521.13
2022-07-29T02:44:18.162Z,101510.34
2022-07-29T02:46:55.679Z,101495.75
2022-07-29T02:49:25.131Z,101485.94
2022-07-29T02:52:12.433Z,101474.09
2022-07-29T02:54:55.343Z,101467.03
2022-07-29T02:57:35.611Z,101460.31
2022-07-29T03:00:25.705Z,101461.56
2022-07-29T03:02:58.672Z,101460.31
2022-07-29T03:05:28.226Z,101461.56
2022-07-29T03:08:09.470Z,101458.13
2022-07-29T03:10:43.425Z,101468.13
2022-07-29T03:13:14.160Z,101475.84
2022-07-29T03:15:45.950Z,101460.03
2022-07-29T03:18:16.050Z,101476.28
2022-07-29T03:20:45.883Z,101476.41
2022-07-29T03:23:15.253Z,101469.81
2022-07-29T03:25:44.567Z,101485.84
2022-07-29T03:28:13.895Z,101481.38
2022-07-29T03:30:45.707Z,101490.25
2022-07-29T03:33:15.717Z,101483.88
2022-07-29T03:35:45.144Z,101489.03
2022-07-29T03:38:16.807Z,101477.22
2022-07-29T03:40:56.721Z,101485.84
2022-07-29T03:43:28.629Z,101482.41
2022-07-29T03:45:58.958Z,101491.16
2022-07-29T03:48:30.407Z,101501.03
2022-07-29T03:51:00.267Z,101496.56
2022-07-29T03:53:29.660Z,101507.38
2022-07-29T03:56:03.336Z,101505.34
2022-07-29T03:58:35.120Z,101507.81
2022-07-29T04:01:04.700Z,101506.03
2022-07-29T04:03:34.204Z,101518.53
2022-07-29T04:06:06.891Z,101524.56
2022-07-29T04:08:37.783Z,101529.78
2022-07-29T04:11:08.171Z,101521.88
2022-07-29T04:13:37.605Z,101521.31
2022-07-29T04:16:07.294Z,101507.34
2022-07-29T04:18:36.710Z,101529.81
2022-07-29T04:21:06.519Z,101525.56
2022-07-29T04:23:36.070Z,101525.91
2022-07-29T04:26:23.691Z,101529.97
2022-07-29T04:28:52.960Z,101525.91
2022-07-29T04:31:25.762Z,101539.22
2022-07-29T04:33:55.348Z,101529.88
2022-07-29T04:36:28.863Z,101533.53
2022-07-29T04:38:59.057Z,101544.91
2022-07-29T04:41:32.995Z,101541.59
2022-07-29T04:44:07.103Z,101543.91
2022-07-29T04:46:41.865Z,101540.97
2022-07-29T04:49:14.225Z,101536.50
2022-07-29T04:51:43.602Z,101529.03
2022-07-29T04:54:13.124Z,101534.50
2022-07-29T04:56:42.782Z,101520.28
2022-07-29T04:59:12.607Z,101524.91
2022-07-29T05:01:42.748Z,101520.25
2022-07-29T05:04:12.355Z,101512.19
2022-07-29T05:06:41.868Z,101511.13
2022-07-29T05:09:13.849Z,101509.97
2022-07-29T05:11:43.181Z,101506.13
2022-07-29T05:14:12.692Z,101510.28
2022-07-29T05:16:43.030Z,101517.69
2022-07-29T05:19:14.579Z,101515.38
2022-07-29T05:21:44.608Z,101520.44
2022-07-29T05:24:14.851Z,101531.44
2022-07-29T05:26:45.577Z,101529.63
2022-07-29T05:29:43.736Z,101526.97
2022-07-29T05:32:04.418Z,101532.66
2022-07-29T05:34:34.238Z,101537.41
2022-07-29T05:37:03.780Z,101534.34
2022-07-29T05:39:47.300Z,101535.38
2022-07-29T05:42:19.831Z,101547.66
2022-07-29T05:44:49.180Z,101543.25
2022-07-29T05:47:18.586Z,101542.16
2022-07-29T05:49:47.945Z,101538.16
2022-07-29T05:52:20.105Z,101539.03
2022-07-29T05:54:49.449Z,101529.16
2022-07-29T05:57:23.005Z,101534.97
2022-07-29T05:59:53.408Z,101535.66
2022-07-29T06:02:23.052Z,101533.75
2022-07-29T06:04:52.661Z,101533.88
2022-07-29T06:07:22.075Z,101524.66
2022-07-29T06:09:51.513Z,101523.84
2022-07-29T06:12:20.919Z,101522.69
2022-07-29T06:14:54.101Z,101539.97
2022-07-29T06:17:23.663Z,101541.09
2022-07-29T06:19:53.056Z,101541.19
2022-07-29T06:22:22.469Z,101551.66
2022-07-29T06:24:51.933Z,101548.59
2022-07-29T06:27:21.333Z,101541.47
2022-07-29T06:29:50.615Z,101544.56
2022-07-29T06:32:20.172Z,101551.03
2022-07-29T06:34:52.235Z,101556.97
2022-07-29T06:37:23.135Z,101552.09
2022-07-29T06:40:14.828Z,101560.41
2022-07-29T06:42:47.564Z,101563.69
2022-07-29T06:45:17.175Z,101560.41
2022-07-29T06:47:46.560Z,101556.88
2022-07-29T06:50:16.120Z,101554.03
2022-07-29T06:52:45.529Z,101549.25
2022-07-29T06:55:25.156Z,101541.06
2022-07-29T06:57:55.080Z,101543.44
2022-07-29T07:00:24.469Z,101544.63
2022-07-29T07:02:53.978Z,101550.25
2022-07-29T07:05:23.422Z,101554.22
2022-07-29T07:07:55.319Z,101559.69
2022-07-29T07:10:24.704Z,101561.97
2022-07-29T07:12:54.137Z,101566.19
2022-07-29T07:15:38.517Z,101568.34
2022-07-29T07:18:09.866Z,101566.31
2022-07-29T07:20:42.280Z,101562.53
2022-07-29T07:23:12.159Z,101566.19
2022-07-29T07:25:43.849Z,101577.00
2022-07-29T07:28:14.607Z,101578.84
2022-07-29T07:30:44.586Z,101576.00
2022-07-29T07:33:13.922Z,101579.50
2022-07-29T07:35:43.525Z,101584.44
2022-07-29T07:38:12.824Z,101580.56
2022-07-29T07:40:42.423Z,101588.28
2022-07-29T07:43:11.803Z,101593.44
2022-07-29T07:45:41.243Z,101589.78
2022-07-29T07:48:11.236Z,101593.75
2022-07-29T07:50:40.924Z,101587.16
2022-07-29T07:53:10.475Z,101575.56
2022-07-29T07:56:09.387Z,101566.66
2022-07-29T07:58:37.268Z,101570.78
2022-07-29T08:01:07.386Z,101568.72
2022-07-29T08:03:37.004Z,101572.13
2022-07-29T08:06:07.583Z,101561.22
2022-07-29T08:08:37.106Z,101566.78
2022-07-29T08:11:09.672Z,101566.22
2022-07-29T08:13:42.849Z,101567.00
2022-07-29T08:16:16.614Z,101583.63
2022-07-29T08:18:47.301Z,101594.34
2022-07-29T08:21:18.674Z,101597.28
2022-07-29T08:23:59.792Z,101591.59
2022-07-29T08:26:31.222Z,101592.97
2022-07-29T08:29:00.542Z,101596.78
2022-07-29T08:31:29.871Z,101599.78
2022-07-29T08:34:00.860Z,101605.75
2022-07-29T08:36:30.249Z,101602.19
2022-07-29T08:38:59.938Z,101603.06
2022-07-29T08:41:29.762Z,101613.59
2022-07-29T08:43:59.208Z,101619.50
2022-07-29T08:46:28.527Z,101616.34
2022-07-29T08:48:59.104Z,101608.13
2022-07-29T08:51:29.233Z,101609.22
2022-07-29T08:53:58.928Z,101612.53
2022-07-29T08:56:28.269Z,101617.97
2022-07-29T08:58:58.400Z,101620.97
2022-07-29T09:01:35.827Z,101608.97
2022-07-29T09:04:09.174Z,101603.59
2022-07-29T09:06:42.959Z,101607.22
2022-07-29T09:09:12.948Z,101604.66
2022-07-29T09:11:47.947Z,101598.88
2022-07-29T09:14:17.539Z,101605.97
2022-07-29T09:17:01.394Z,101616.69
2022-07-29T09:19:35.253Z,101613.88
2022-07-29T09:22:07.612Z,101618.13
2022-07-29T09:24:48.503Z,101624.19
2022-07-29T09:27:20.975Z,101615.66
2022-07-29T09:29:51.140Z,101621.69
2022-07-29T09:32:20.932Z,101618.34
2022-07-29T09:34:50.269Z,101616.91
2022-07-29T09:37:32.696Z,101626.78
2022-07-29T09:40:01.979Z,101629.97
2022-07-29T09:42:34.914Z,101628.38
2022-07-29T09:45:04.331Z,101627.13
2022-07-29T09:47:50.271Z,101626.50
2022-07-29T09:50:24.598Z,101633.31
2022-07-29T09:52:56.000Z,101628.97
2022-07-29T09:55:25.459Z,101630.84
2022-07-29T09:57:55.424Z,101632.16
2022-07-29T10:00:26.449Z,101633.50
2022-07-29T10:03:03.844Z,101630.50
2022-07-29T10:05:36.485Z,101630.63
2022-07-29T10:08:06.927Z,101635.13
2022-07-29T10:10:42.462Z,101625.06
2022-07-29T10:13:17.002Z,101640.16
2022-07-29T10:15:51.902Z,101627.34
2022-07-29T10:18:21.542Z,101630.47
2022-07-29T10:20:51.931Z,101626.56
2022-07-29T10:23:21.393Z,101633.09
2022-07-29T10:25:50.802Z,101631.91
2022-07-29T10:28:20.171Z,101622.59
2022-07-29T10:30:53.440Z,101622.38
2022-07-29T10:33:37.856Z,101616.22
2022-07-29T10:36:19.398Z,101623.59
2022-07-29T10:39:22.357Z,101620.22
2022-07-29T10:42:17.051Z,101616.53
2022-07-29T10:44:50.512Z,101608.69
2022-07-29T10:47:27.690Z,101610.84
2022-07-29T10:50:06.117Z,101608.88
2022-07-29T10:52:53.672Z,101610.88
2022-07-29T10:55:45.651Z,101605.41
2022-07-29T10:58:25.301Z,101607.06
2022-07-29T11:00:57.651Z,101604.63
2022-07-29T11:03:57.160Z,101608.38
2022-07-29T11:06:28.081Z,101613.41
2022-07-29T11:09:34.990Z,101611.00
2022-07-29T11:12:07.182Z,101615.50
2022-07-29T11:14:57.356Z,101616.00
2022-07-29T11:17:27.527Z,101618.03
2022-07-29T11:20:42.861Z,101609.94
2022-07-29T11:23:27.977Z,101613.03
2022-07-29T11:26:18.885Z,101611.59
2022-07-29T11:28:55.737Z,101605.03
2022-07-29T11:31:55.856Z,101613.03
2022-07-29T11:34:34.780Z,101606.44
2022-07-29T11:37:13.738Z,101604.47
2022-07-29T11:39:50.915Z,101601.94
2022-07-29T11:42:32.435Z,101602.00
2022-07-29T11:45:41.150Z,101605.16
2022-07-29T11:48:28.431Z,101600.38
2022-07-29T11:50:51.850Z,101595.19
2022-07-29T11:53:21.262Z,101602.09
2022-07-29T11:55:58.625Z,101602.72
2022-07-29T11:58:28.457Z,101590.19
2022-07-29T12:00:58.542Z,101601.50
2022-07-29T12:03:36.855Z,101596.22
2022-07-29T12:06:17.439Z,101600.47
2022-07-29T12:08:48.412Z,101599.66
2022-07-29T12:11:24.715Z,101591.81
2022-07-29T12:13:55.311Z,101596.25
2022-07-29T12:16:29.364Z,101595.75
2022-07-29T12:19:04.163Z,101599.41
2022-07-29T12:21:59.365Z,101596.28
2022-07-29T12:24:29.919Z,101604.44
2022-07-29T12:27:02.685Z,101583.72
2022-07-29T12:29:33.808Z,101594.00
2022-07-29T12:32:14.845Z,101586.63
2022-07-29T12:34:48.996Z,101592.41
2022-07-29T12:37:18.591Z,101591.88
2022-07-29T12:39:48.094Z,101594.50
2022-07-29T12:42:19.244Z,101591.28
2022-07-29T12:44:50.381Z,101591.50
2022-07-29T12:47:21.811Z,101586.19
2022-07-29T12:49:52.463Z,101579.81
2022-07-29T12:52:34.474Z,101583.16
2022-07-29T12:55:04.617Z,101592.56
2022-07-29T12:57:34.441Z,101584.59
2022-07-29T13:00:13.671Z,101584.03
2022-07-29T13:02:46.519Z,101588.25
2022-07-29T13:05:17.275Z,101586.06
2022-07-29T13:07:55.130Z,101586.97
2022-07-29T13:10:27.186Z,101586.81
2022-07-29T13:13:13.084Z,101584.06
2022-07-29T13:15:45.238Z,101592.09
2022-07-29T13:18:34.759Z,101589.19
2022-07-29T13:21:18.955Z,101587.09
2022-07-29T13:23:48.503Z,101596.03
2022-07-29T13:26:29.678Z,101590.09
2022-07-29T13:28:59.536Z,101584.16
2022-07-29T13:31:29.051Z,101584.75
2022-07-29T13:33:58.401Z,101583.56
2022-07-29T13:36:27.834Z,101584.28
2022-07-29T13:38:57.681Z,101586.34
2022-07-29T13:41:27.054Z,101593.91
2022-07-29T13:43:56.382Z,101571.09
2022-07-29T13:46:25.775Z,101573.94
2022-07-29T13:48:55.228Z,101575.03
2022-07-29T13:51:24.808Z,101574.38
2022-07-29T13:53:54.114Z,101575.94
2022-07-29T13:56:23.435Z,101571.69
2022-07-29T13:58:53.107Z,101575.09
2022-07-29T14:01:22.504Z,101570.78
2022-07-29T14:03:52.009Z,101568.84
2022-07-29T14:06:22.319Z,101561.88
2022-07-29T14:08:51.709Z,101568.66
2022-07-29T14:11:21.116Z,101575.44
2022-07-29T14:13:50.389Z,101560.78
2022-07-29T14:16:19.814Z,101569.50
2022-07-29T14:18:49.122Z,101577.69
2022-07-29T14:21:18.463Z,101567.94
2022-07-29T14:23:49.151Z,101566.19
2022-07-29T14:26:21.402Z,101563.50
2022-07-29T14:28:55.444Z,101571.03
2022-07-29T14:31:24.878Z,101566.16
2022-07-29T14:33:54.218Z,101567.72
2022-07-29T14:36:23.688Z,101554.03
2022-07-29T14:38:53.431Z,101562.22
2022-07-29T14:41:22.771Z,101570.09
2022-07-29T14:43:53.863Z,101564.50
2022-07-29T14:46:23.326Z,101570.31
2022-07-29T14:48:52.782Z,101562.94
2022-07-29T14:51:22.432Z,101566.09
2022-07-29T14:53:51.840Z,101572.53
2022-07-29T14:56:36.493Z,101563.56
2022-07-29T14:59:06.896Z,101566.28
2022-07-29T15:01:36.348Z,101572.84
2022-07-29T15:04:06.018Z,101557.97
2022-07-29T15:06:35.412Z,101562.94
2022-07-29T15:09:04.766Z,101560.03
2022-07-29T15:11:37.015Z,101558.75
2022-07-29T15:14:07.950Z,101559.78
2022-07-29T15:16:41.994Z,101563.19
2022-07-29T15:19:14.213Z,101562.78
2022-07-29T15:21:48.386Z,101572.81
2022-07-29T15:24:22.526Z,101573.91
2022-07-29T15:26:51.887Z,101576.59
2022-07-29T15:29:22.823Z,101570.81
2022-07-29T15:31:52.511Z,101570.00
2022-07-29T15:34:21.898Z,101572.16
2022-07-29T15:36:52.831Z,101558.97
2022-07-29T15:39:23.284Z,101553.44
2022-07-29T15:41:53.507Z,101550.78
2022-07-29T15:44:23.860Z,101557.38
2022-07-29T15:47:08.963Z,101555.22
2022-07-29T15:49:46.412Z,101550.47
2022-07-29T15:52:16.323Z,101548.63
2022-07-29T15:54:45.719Z,101548.09
2022-07-29T15:57:15.310Z,101541.22
2022-07-29T15:59:44.612Z,101547.78
2022-07-29T16:02:13.895Z,101557.22
2022-07-29T16:04:43.187Z,101552.75
2022-07-29T16:07:12.532Z,101562.53
2022-07-29T16:09:46.236Z,101555.09
2022-07-29T16:12:24.128Z,101560.09
2022-07-29T16:14:53.512Z,101563.28
2022-07-29T16:17:22.948Z,101557.22
2022-07-29T16:19:53.379Z,101558.53
2022-07-29T16:22:22.665Z,101554.84
2022-07-29T16:24:51.979Z,101554.41
2022-07-29T16:27:27.061Z,101559.91
2022-07-29T16:30:04.984Z,101553.88
2022-07-29T16:32:34.663Z,101544.41
2022-07-29T16:35:05.513Z,101557.03
2022-07-29T16:37:37.221Z,101547.56
2022-07-29T16:40:07.790Z,101545.72
2022-07-29T16:42:47.011Z,101560.94
2022-07-29T16:45:18.172Z,101546.97
2022-07-29T16:47:50.884Z,101551.72
2022-07-29T16:50:20.638Z,101544.94
2022-07-29T16:52:49.970Z,101548.59
2022-07-29T16:55:19.352Z,101548.09
2022-07-29T16:57:48.651Z,101548.91
2022-07-29T17:00:19.557Z,101545.53
2022-07-29T17:02:49.078Z,101549.97
2022-07-29T17:05:18.543Z,101552.13
2022-07-29T17:07:48.426Z,101557.16
2022-07-29T17:10:17.803Z,101554.25
2022-07-29T17:12:47.863Z,101559.78
2022-07-29T17:15:18.554Z,101562.19
2022-07-29T17:17:55.174Z,101554.53
2022-07-29T17:20:26.790Z,101571.41
2022-07-29T17:22:56.923Z,101560.84
2022-07-29T17:25:26.358Z,101564.00
2022-07-29T17:28:00.522Z,101556.41
2022-07-29T17:30:30.379Z,101561.59
2022-07-29T17:32:59.776Z,101561.06
2022-07-29T17:35:41.648Z,101567.34
2022-07-29T17:38:11.061Z,101572.06
2022-07-29T17:40:43.066Z,101569.19
2022-07-29T17:43:12.339Z,101568.13
2022-07-29T17:45:48.714Z,101565.50
2022-07-29T17:48:20.843Z,101568.91
2022-07-29T17:50:51.108Z,101576.00
2022-07-29T17:53:20.491Z,101571.03
2022-07-29T17:55:51.266Z,101571.06
2022-07-29T17:58:20.684Z,101564.19
2022-07-29T18:00:52.910Z,101578.66
2022-07-29T18:03:22.993Z,101577.91
2022-07-29T18:05:52.401Z,101564.47
2022-07-29T18:08:22.297Z,101576.03
2022-07-29T18:10:51.698Z,101568.44
2022-07-29T18:13:21.681Z,101578.16
2022-07-29T18:15:51.244Z,101578.16
2022-07-29T18:18:20.988Z,101576.03
2022-07-29T18:20:50.499Z,101587.09
2022-07-29T18:23:19.827Z,101580.22
2022-07-29T18:25:49.180Z,101587.81
2022-07-29T18:28:18.679Z,101595.44
2022-07-29T18:30:48.114Z,101599.09
2022-07-29T18:33:21.822Z,101597.72
2022-07-29T18:36:10.079Z,101598.97
2022-07-29T18:38:42.306Z,101598.41
2022-07-29T18:41:11.959Z,101591.81
2022-07-29T18:43:41.976Z,101580.97
2022-07-29T18:46:11.315Z,101584.13
2022-07-29T18:48:42.198Z,101597.47
2022-07-29T18:51:11.892Z,101600.13
2022-07-29T18:53:41.230Z,101594.28
2022-07-29T18:56:10.585Z,101596.66
2022-07-29T18:58:39.902Z,101602.09
2022-07-29T19:01:16.491Z,101608.00
2022-07-29T19:03:46.198Z,101614.81
2022-07-29T19:06:16.043Z,101614.34
2022-07-29T19:08:45.535Z,101613.97
2022-07-29T19:11:15.347Z,101620.22
2022-07-29T19:13:44.700Z,101613.28
2022-07-29T19:16:16.976Z,101609.81
2022-07-29T19:18:47.405Z,101613.97
2022-07-29T19:21:17.377Z,101613.88
2022-07-29T19:24:00.684Z,101621.69
2022-07-29T19:26:42.101Z,101618.72
2022-07-29T19:29:13.349Z,101629.44
2022-07-29T19:31:42.943Z,101635.97
2022-07-29T19:34:12.555Z,101637.41
2022-07-29T19:36:41.899Z,101649.16
2022-07-29T19:39:11.758Z,101652.47
2022-07-29T19:41:41.262Z,101644.50
2022-07-29T19:44:14.313Z,101655.16
2022-07-29T19:46:47.015Z,101657.50
2022-07-29T19:49:16.555Z,101659.78
2022-07-29T19:51:46.019Z,101658.84
2022-07-29T19:54:15.640Z,101661.31
2022-07-29T19:56:45.886Z,101665.44
2022-07-29T19:59:15.536Z,101660.91
2022-07-29T20:01:45.360Z,101665.06
2022-07-29T20:04:14.757Z,101675.41
2022-07-29T20:06:49.555Z,101669.09
2022-07-29T20:09:20.784Z,101681.00
2022-07-29T20:11:50.261Z,101674.06
2022-07-29T20:14:19.671Z,101677.28
2022-07-29T20:16:48.970Z,101678.00
2022-07-29T20:19:18.971Z,101682.84
2022-07-29T20:21:48.277Z,101681.16
2022-07-29T20:24:17.623Z,101680.25
2022-07-29T20:26:47.067Z,101675.91
2022-07-29T20:29:16.539Z,101686.53
2022-07-29T20:31:53.295Z,101688.19
2022-07-29T20:34:25.689Z,101688.59
2022-07-29T20:36:55.211Z,101685.81
2022-07-29T20:39:25.635Z,101697.69
2022-07-29T20:41:55.084Z,101702.25
2022-07-29T20:44:24.472Z,101702.59
2022-07-29T20:46:53.787Z,101700.59
2022-07-29T20:49:23.200Z,101703.34
2022-07-29T20:51:52.604Z,101709.47
2022-07-29T20:54:22.006Z,101704.59
2022-07-29T20:56:51.302Z,101703.88
2022-07-29T20:59:20.621Z,101698.81
2022-07-29T21:01:50.244Z,101710.97
2022-07-29T21:04:19.771Z,101706.97
2022-07-29T21:06:49.133Z,101711.47
2022-07-29T21:09:18.621Z,101715.22
2022-07-29T21:11:48.096Z,101713.50
2022-07-29T21:14:27.946Z,101711.75
2022-07-29T21:16:57.627Z,101714.06
2022-07-29T21:19:27.196Z,101719.00
2022-07-29T21:21:56.523Z,101720.91
2022-07-29T21:24:25.980Z,101717.75
2022-07-29T21:27:20.750Z,101724.94
2022-07-29T21:29:48.928Z,101714.28
2022-07-29T21:32:29.602Z,101715.91
2022-07-29T21:35:00.855Z,101712.59
2022-07-29T21:37:30.401Z,101702.28
2022-07-29T21:40:00.124Z,101709.75
2022-07-29T21:42:29.568Z,101707.22
2022-07-29T21:44:58.908Z,101717.56
2022-07-29T21:47:28.530Z,101719.53
2022-07-29T21:49:58.030Z,101721.41
2022-07-29T21:52:28.244Z,101716.00
2022-07-29T21:54:58.302Z,101715.84
2022-07-29T21:57:27.867Z,101713.16
2022-07-29T22:00:02.167Z,101714.91
2022-07-29T22:02:32.256Z,101720.00
2022-07-29T22:05:01.624Z,101702.19
2022-07-29T22:07:55.906Z,101713.00
2022-07-29T22:10:20.523Z,101694.53
2022-07-29T22:12:53.477Z,101714.25
2022-07-29T22:15:23.087Z,101701.88
2022-07-29T22:17:53.163Z,101703.78
2022-07-29T22:20:23.396Z,101700.28
2022-07-29T22:22:52.800Z,101696.47
2022-07-29T22:25:22.678Z,101700.28
2022-07-29T22:27:52.210Z,101695.19
2022-07-29T22:30:21.762Z,101695.81
2022-07-29T22:32:51.108Z,101698.00
2022-07-29T22:35:20.563Z,101692.94
2022-07-29T22:37:51.176Z,101698.16
2022-07-29T22:40:20.481Z,101689.06
2022-07-29T22:42:50.227Z,101696.97
2022-07-29T22:45:19.786Z,101685.84
2022-07-29T22:47:49.487Z,101694.25
2022-07-29T22:50:20.207Z,101689.97
2022-07-29T22:52:49.715Z,101698.69
2022-07-29T22:55:19.092Z,101698.84
2022-07-29T22:57:48.554Z,101688.47
2022-07-29T23:00:18.458Z,101695.94
2022-07-29T23:02:47.873Z,101695.28
2022-07-29T23:05:18.102Z,101706.06
2022-07-29T23:07:47.534Z,101705.41
2022-07-29T23:10:16.943Z,101704.78
2022-07-29T23:12:46.259Z,101707.75
2022-07-29T23:15:15.800Z,101703.09
2022-07-29T23:17:47.572Z,101690.66
2022-07-29T23:20:16.905Z,101701.00
2022-07-29T23:22:46.205Z,101690.03
2022-07-29T23:25:15.608Z,101702.38
2022-07-29T23:27:44.922Z,101698.88
2022-07-29T23:30:16.840Z,101706.78
2022-07-29T23:32:46.175Z,101701.34
2022-07-29T23:35:15.490Z,101698.94
2022-07-29T23:37:44.995Z,101689.94
2022-07-29T23:40:15.071Z,101697.22
2022-07-29T23:42:45.784Z,101698.03
2022-07-29T23:45:16.312Z,101694.03
2022-07-29T23:47:45.766Z,101696.56
2022-07-29T23:50:16.842Z,101699.09
2022-07-29T23:52:47.273Z,101700.69
2022-07-29T23:55:36.685Z,101692.72
2022-07-29T23:58:06.347Z,101692.72
